Time;durP1;ratioP1;P1;durP2;ratioP2;P2;SDS_P1;SDS_P2;PMS_P1;PMS_P2;Temp;Humidity;BMP_temperature;BMP_pressure;BME280_temperature;BME280_humidity;BME280_pressure;Samples;Min_cycle;Max_cycle;Signal;HPM_P1;HPM_P2
2022/09/19 00:01:52;;;;;;;3.25;1.77;;;;;;;14.46;100.00;96033.47;5135948;27;20074;-59
2022/09/19 00:04:22;;;;;;;2.53;2.00;;;;;;;14.66;100.00;96033.84;5137581;27;20112;-61
2022/09/19 00:06:53;;;;;;;2.22;1.80;;;;;;;14.56;100.00;96033.28;5135470;27;20082;-61
2022/09/19 00:09:24;;;;;;;2.80;2.05;;;;;;;14.46;100.00;96031.66;5134399;27;20074;-61
2022/09/19 00:11:52;;;;;;;;;;;;;;;14.72;100.00;96025.13;5135521;27;20089;-61
2022/09/19 00:14:24;;;;;;;2.30;1.98;;;;;;;14.39;100.00;96036.03;5138786;27;19962;-60
2022/09/19 00:16:56;;;;;;;3.15;1.98;;;;;;;14.25;100.00;96023.53;5133406;27;20075;-62
2022/09/19 00:19:26;;;;;;;1.98;1.80;;;;;;;14.18;100.00;96025.25;5136853;27;20062;-61
2022/09/19 00:21:58;;;;;;;4.03;2.30;;;;;;;14.60;100.00;96029.25;5136391;27;20464;-61
2022/09/19 00:27:14;;;;;;;2.30;1.58;;;;;;;14.31;100.00;96000.78;5137447;27;20075;-61
2022/09/19 00:29:43;;;;;;;1.77;1.67;;;;;;;14.04;100.00;96032.16;5140004;27;20473;-61
2022/09/19 00:32:12;;;;;;;2.05;1.70;;;;;;;13.98;100.00;96015.13;5141591;27;20074;-61
2022/09/19 00:34:42;;;;;;;1.60;1.50;;;;;;;14.30;100.00;96015.88;5144792;27;20094;-61
2022/09/19 00:37:12;;;;;;;2.70;1.60;;;;;;;14.47;100.00;96020.03;5141592;27;20543;-61
2022/09/19 00:39:41;;;;;;;3.00;1.92;;;;;;;14.42;100.00;96018.94;5141956;27;20492;-60
2022/09/19 00:42:15;;;;;;;1.70;1.60;;;;;;;14.69;100.00;96023.69;5143148;27;20541;-61
2022/09/19 00:44:53;;;;;;;1.58;1.48;;;;;;;14.38;100.00;96018.47;5143790;27;20078;-61
2022/09/19 00:47:25;;;;;;;2.47;1.42;;;;;;;14.25;100.00;96023.53;5141292;27;20174;-57
2022/09/19 00:49:56;;;;;;;3.78;1.80;;;;;;;15.02;100.00;96057.84;5138540;27;20097;-62
2022/09/19 00:52:33;;;;;;;1.92;1.25;;;;;;;14.48;100.00;96079.22;5142621;27;20525;-62
2022/09/19 00:55:02;;;;;;;1.50;1.40;;;;;;;14.42;100.00;96086.06;5143432;27;20066;-63
2022/09/19 00:57:47;;;;;;;2.03;1.40;;;;;;;14.25;100.00;96088.03;5141810;27;20066;-62
2022/09/19 01:00:15;;;;;;;1.60;1.50;;;;;;;14.13;100.00;96096.53;5141881;27;20094;-62
2022/09/19 01:02:46;;;;;;;1.80;1.30;;;;;;;14.16;100.00;96093.53;5144117;27;20539;-63
2022/09/19 01:05:16;;;;;;;;;;;;;;;14.31;100.00;96102.38;5140085;27;20643;-63
2022/09/19 01:08:01;;;;;;;1.40;1.30;;;;;;;13.87;100.00;96104.84;5144177;27;19954;-62
2022/09/19 01:10:38;;;;;;;1.50;1.40;;;;;;;14.09;100.00;96105.84;5141981;27;20750;-61
2022/09/19 01:13:12;;;;;;;1.50;1.40;;;;;;;14.11;100.00;96102.03;5141047;27;20728;-63
2022/09/19 01:15:50;;;;;;;1.38;1.38;;;;;;;14.01;100.00;96109.38;5137016;27;20114;-62
2022/09/19 01:18:22;;;;;;;1.50;1.40;;;;;;;13.81;100.00;96114.28;5145167;27;20078;-61
2022/09/19 01:24:19;;;;;;;5.22;1.42;;;;;;;13.72;100.00;96115.31;5130059;27;20523;-61
2022/09/19 01:27:05;;;;;;;1.50;1.40;;;;;;;13.83;100.00;96122.06;5140496;27;20109;-62
2022/09/19 01:29:38;;;;;;;1.42;1.33;;;;;;;13.23;100.00;96123.41;5140496;27;20473;-59
2022/09/19 01:32:09;;;;;;;1.50;1.40;;;;;;;13.90;100.00;96115.06;5136845;27;20066;-62
2022/09/19 01:34:40;;;;;;;1.55;1.45;;;;;;;13.98;100.00;96123.81;5138087;27;20075;-61
2022/09/19 01:37:12;;;;;;;1.50;1.40;;;;;;;14.25;100.00;96117.19;5135823;27;20070;-61
2022/09/19 01:39:42;;;;;;;1.50;1.42;;;;;;;13.80;100.00;96117.09;5143298;27;20148;-61
2022/09/19 01:42:13;;;;;;;1.50;1.40;;;;;;;13.66;100.00;96122.16;5136389;27;20067;-62
2022/09/19 01:44:42;;;;;;;1.50;1.40;;;;;;;13.67;100.00;96123.78;5139363;27;20075;-61
2022/09/19 01:47:17;;;;;;;1.30;1.30;;;;;;;13.87;100.00;96126.84;5140784;27;20082;-62
2022/09/19 01:49:52;;;;;;;1.42;1.40;;;;;;;13.45;100.00;96124.53;5140598;27;20077;-59
2022/09/19 01:52:31;;;;;;;1.50;1.40;;;;;;;13.63;100.00;96124.31;5142377;27;20090;-62
2022/09/19 01:55:06;;;;;;;1.33;1.30;;;;;;;13.54;100.00;96119.03;5138966;27;20525;-62
2022/09/19 01:57:42;;;;;;;1.48;1.40;;;;;;;13.09;100.00;96118.81;5135742;27;20082;-59
2022/09/19 02:00:14;;;;;;;1.55;1.40;;;;;;;13.62;100.00;96123.47;5136315;27;20112;-61
2022/09/19 02:02:49;;;;;;;1.90;1.40;;;;;;;13.34;100.00;96120.44;5141318;27;20090;-61
2022/09/19 02:05:27;;;;;;;1.60;1.50;;;;;;;13.34;100.00;96122.25;5143355;27;20153;-61
2022/09/19 02:08:01;;;;;;;1.52;1.42;;;;;;;13.54;100.00;96126.97;5139780;27;20082;-60
2022/09/19 02:10:34;;;;;;;1.60;1.50;;;;;;;13.94;100.00;96129.66;5142431;27;20078;-61
2022/09/19 02:13:05;;;;;;;1.38;1.30;;;;;;;13.71;100.00;96137.53;5144294;27;20453;-59
2022/09/19 02:15:36;;;;;;;1.60;1.50;;;;;;;13.61;100.00;96140.38;5139958;27;20047;-60
2022/09/19 02:18:10;;;;;;;1.50;1.40;;;;;;;13.40;100.00;96138.28;5141489;27;20070;-59
2022/09/19 02:20:41;;;;;;;1.38;1.38;;;;;;;13.46;100.00;96139.44;5137278;27;20090;-59
2022/09/19 02:23:25;;;;;;;1.60;1.50;;;;;;;13.20;100.00;96152.88;5132885;27;20093;-60
2022/09/19 02:25:55;;;;;;;1.50;1.40;;;;;;;13.26;100.00;96152.22;5141395;27;20543;-60
2022/09/19 02:28:29;;;;;;;1.42;1.40;;;;;;;13.29;100.00;96149.25;5134213;27;20547;-61
2022/09/19 02:30:59;;;;;;;1.45;1.40;;;;;;;13.32;100.00;96153.38;5137699;27;20074;-60
2022/09/19 02:33:28;;;;;;;1.75;1.65;;;;;;;13.59;100.00;96154.78;5140959;27;20089;-59
2022/09/19 02:35:59;;;;;;;1.40;1.40;;;;;;;13.51;100.00;96151.16;5145320;27;20569;-60
2022/09/19 02:38:36;;;;;;;1.50;1.30;;;;;;;13.51;100.00;96155.63;5138588;27;20078;-61
2022/09/19 02:41:08;;;;;;;1.40;1.40;;;;;;;14.14;100.00;96148.56;5137678;27;20082;-58
2022/09/19 02:43:42;;;;;;;1.52;1.42;;;;;;;13.89;100.00;96161.13;5134474;27;20086;-60
2022/09/19 02:46:17;;;;;;;1.70;1.60;;;;;;;13.75;100.00;96149.44;5139284;27;20524;-60
2022/09/19 02:48:51;;;;;;;2.25;1.60;;;;;;;13.46;100.00;96163.28;5139471;27;20070;-59
2022/09/19 02:51:24;;;;;;;1.60;1.50;;;;;;;13.21;100.00;96162.47;5141967;27;20058;-60
2022/09/19 02:53:56;;;;;;;1.52;1.42;;;;;;;13.22;100.00;96169.44;5133064;27;20444;-58
2022/09/19 02:56:28;;;;;;;1.45;1.40;;;;;;;13.40;100.00;96170.06;5137177;27;20069;-59
2022/09/19 02:59:00;;;;;;;1.55;1.50;;;;;;;12.92;100.00;96168.28;5145961;27;20051;-58
2022/09/19 03:01:31;;;;;;;2.70;1.60;;;;;;;13.25;100.00;96177.06;5133817;27;20128;-59
2022/09/19 03:04:14;;;;;;;1.55;1.42;;;;;;;13.13;100.00;96171.25;5139123;27;20074;-59
2022/09/19 03:06:50;;;;;;;1.88;1.77;;;;;;;13.20;100.00;96169.56;5140478;27;20082;-60
2022/09/19 03:09:21;;;;;;;2.05;1.42;;;;;;;13.13;100.00;96178.38;5137778;27;20089;-58
2022/09/19 03:11:55;;;;;;;2.00;1.70;;;;;;;13.09;100.00;96175.22;5128274;27;20075;-61
2022/09/19 03:14:24;;;;;;;1.60;1.50;;;;;;;13.17;100.00;96179.69;5131424;27;20075;-60
2022/09/19 03:16:56;;;;;;;1.70;1.60;;;;;;;13.23;100.00;96179.00;5140314;27;20058;-62
2022/09/19 03:19:24;;;;;;;2.28;1.70;;;;;;;12.65;100.00;96186.13;5136314;27;20070;-60
2022/09/19 03:21:54;;;;;;;5.22;1.65;;;;;;;12.74;100.00;96182.53;5136996;27;20063;-61
2022/09/19 03:24:23;;;;;;;1.63;1.52;;;;;;;12.76;100.00;96190.28;5130481;27;20079;-61
2022/09/19 03:26:52;;;;;;;1.95;1.70;;;;;;;12.88;100.00;96191.63;5144448;27;20082;-62
2022/09/19 03:29:20;;;;;;;1.70;1.60;;;;;;;12.94;100.00;96188.31;5133173;27;20490;-62
2022/09/19 03:31:52;;;;;;;2.55;1.65;;;;;;;12.26;100.00;96199.97;5134116;27;20527;-62
2022/09/19 03:34:22;;;;;;;3.50;1.83;;;;;;;13.17;100.00;96188.44;5142139;27;20086;-61
2022/09/19 03:36:50;;;;;;;8.30;1.90;;;;;;;13.30;100.00;96198.56;5141945;27;20074;-61
2022/09/19 03:39:18;;;;;;;4.30;1.92;;;;;;;13.04;100.00;96196.91;5129296;27;20476;-61
2022/09/19 03:41:48;;;;;;;3.53;1.70;;;;;;;12.71;100.00;96205.84;5139929;27;20043;-61
2022/09/19 03:44:19;;;;;;;1.95;1.80;;;;;;;13.16;100.00;96201.88;5138299;27;20070;-61
2022/09/19 03:46:48;;;;;;;3.22;1.98;;;;;;;12.98;100.00;96200.22;5135564;27;20516;-60
2022/09/19 03:49:19;;;;;;;2.92;1.80;;;;;;;13.19;100.00;96205.00;5130229;27;20067;-61
2022/09/19 03:51:49;;;;;;;4.35;1.92;;;;;;;12.87;100.00;96203.22;5140589;27;20116;-61
2022/09/19 03:54:17;;;;;;;4.20;1.75;;;;;;;12.95;100.00;96212.97;5140017;27;20081;-59
2022/09/19 03:56:46;;;;;;;4.78;2.00;;;;;;;12.98;100.00;96213.44;5133568;27;20077;-60
2022/09/19 03:59:14;;;;;;;2.65;1.83;;;;;;;12.64;100.00;96215.41;5139676;27;20074;-58
2022/09/19 04:01:43;;;;;;;1.90;1.80;;;;;;;12.44;100.00;96218.34;5132731;27;20429;-61
2022/09/19 04:04:11;;;;;;;1.80;1.70;;;;;;;12.72;100.00;96224.19;5140897;27;20078;-61
2022/09/19 04:06:41;;;;;;;3.08;1.95;;;;;;;12.92;100.00;96218.56;5134497;27;20086;-60
2022/09/19 04:09:11;;;;;;;2.72;2.15;;;;;;;13.09;100.00;96230.81;5139963;27;20070;-58
2022/09/19 04:11:41;;;;;;;5.65;2.03;;;;;;;13.06;100.00;96236.44;5140296;27;20046;-61
2022/09/19 04:14:10;;;;;;;3.75;1.77;;;;;;;13.00;100.00;96235.28;5143431;27;20062;-61
2022/09/19 04:16:38;;;;;;;2.92;1.90;;;;;;;13.87;100.00;96234.72;5139509;27;20074;-61
2022/09/19 04:19:09;;;;;;;4.63;1.80;;;;;;;13.26;100.00;96242.28;5138385;27;20059;-61
2022/09/19 04:21:38;;;;;;;;;;;;;;;13.32;100.00;96244.25;5134332;27;20085;-61
2022/09/19 04:24:06;;;;;;;4.03;1.80;;;;;;;12.52;100.00;96242.16;5144355;27;19951;-61
2022/09/19 04:26:36;;;;;;;1.80;1.70;;;;;;;12.86;100.00;96235.94;5137420;27;20558;-61
2022/09/19 04:29:06;;;;;;;2.50;2.05;;;;;;;13.36;100.00;96234.97;5137602;27;21938;-61
2022/09/19 04:31:38;;;;;;;1.77;1.67;;;;;;;12.70;100.00;96241.22;5138892;27;20082;-61
2022/09/19 04:34:07;;;;;;;3.03;2.00;;;;;;;13.17;100.00;96252.00;5145446;27;20532;-62
2022/09/19 04:36:35;;;;;;;3.53;1.90;;;;;;;13.30;100.00;96248.88;5140759;27;20191;-61
2022/09/19 04:39:06;;;;;;;2.50;1.80;;;;;;;12.72;100.00;96249.81;5138192;27;20556;-61
2022/09/19 04:41:38;;;;;;;6.05;2.10;;;;;;;13.09;100.00;96254.66;5146794;27;20090;-61
2022/09/19 04:44:09;;;;;;;2.22;1.77;;;;;;;12.98;100.00;96260.28;5139136;27;20082;-61
2022/09/19 04:46:41;;;;;;;2.42;2.08;;;;;;;13.34;100.00;96270.56;5133088;27;20086;-61
2022/09/19 04:49:09;;;;;;;5.15;1.70;;;;;;;13.03;100.00;96279.13;5133303;27;20085;-61
2022/09/19 04:51:38;;;;;;;2.38;1.80;;;;;;;13.29;100.00;96271.88;5132993;27;20157;-61
2022/09/19 04:54:07;;;;;;;3.80;1.73;;;;;;;13.42;100.00;96276.69;5133442;27;20082;-61
2022/09/19 04:56:36;;;;;;;4.72;2.00;;;;;;;13.51;100.00;96277.50;5133120;27;20132;-62
2022/09/19 04:59:05;;;;;;;2.87;1.97;;;;;;;13.46;100.00;96275.38;5146778;27;20535;-62
2022/09/19 05:01:34;;;;;;;3.25;1.58;;;;;;;13.46;100.00;96291.25;5146597;27;20100;-62
2022/09/19 05:04:03;;;;;;;5.13;1.83;;;;;;;13.06;100.00;96295.50;5142692;27;20087;-62
2022/09/19 05:06:32;;;;;;;3.42;1.80;;;;;;;13.59;100.00;96285.44;5143327;27;20085;-61
2022/09/19 05:09:00;;;;;;;2.72;1.77;;;;;;;13.34;100.00;96299.69;5140418;27;20093;-61
2022/09/19 05:11:29;;;;;;;4.35;1.75;;;;;;;13.60;100.00;96297.69;5139026;27;20090;-61
2022/09/19 05:13:58;;;;;;;9.35;2.10;;;;;;;13.62;100.00;96297.53;5139351;27;20607;-61
2022/09/19 05:16:27;;;;;;;4.57;2.08;;;;;;;13.68;100.00;96304.81;5144821;27;20090;-61
2022/09/19 05:18:55;;;;;;;3.85;1.90;;;;;;;13.62;100.00;96308.13;5134022;27;20206;-61
2022/09/19 05:21:23;;;;;;;4.32;2.13;;;;;;;13.79;100.00;96299.16;5138784;27;20082;-61
2022/09/19 05:23:52;;;;;;;3.25;1.80;;;;;;;13.55;100.00;96307.94;5141990;27;20097;-61
2022/09/19 05:26:20;;;;;;;1.92;1.67;;;;;;;13.74;100.00;96322.69;5133435;27;20528;-62
2022/09/19 05:28:49;;;;;;;6.05;2.15;;;;;;;14.32;100.00;96315.44;5137784;27;20083;-62
2022/09/19 05:31:20;;;;;;;8.23;2.67;;;;;;;13.90;100.00;96319.16;5139377;27;20465;-62
2022/09/19 05:33:48;;;;;;;2.60;1.67;;;;;;;13.71;100.00;96320.38;5143432;27;20066;-61
2022/09/19 05:36:17;;;;;;;4.47;1.90;;;;;;;13.71;100.00;96328.31;5146767;27;20078;-62
2022/09/19 05:38:46;;;;;;;5.70;2.00;;;;;;;13.63;100.00;96331.81;5136408;27;20579;-62
2022/09/19 05:41:15;;;;;;;4.20;2.00;;;;;;;14.07;100.00;96335.88;5138773;27;20078;-62
2022/09/19 05:43:44;;;;;;;4.78;2.00;;;;;;;14.02;100.00;96344.34;5136689;27;20048;-61
2022/09/19 05:46:13;;;;;;;3.90;1.90;;;;;;;13.67;100.00;96351.69;5139265;27;20090;-63
2022/09/19 05:48:42;;;;;;;3.55;1.83;;;;;;;13.80;100.00;96345.03;5132150;27;20176;-61
2022/09/19 05:51:11;;;;;;;1.87;1.70;;;;;;;13.65;100.00;96335.09;5131513;27;20082;-61
2022/09/19 05:53:55;;;;;;;2.40;1.77;;;;;;;13.47;100.00;96351.19;5132576;27;20086;-61
2022/09/19 05:56:24;;;;;;;3.05;1.90;;;;;;;13.79;100.00;96349.50;5146106;27;20082;-62
2022/09/19 05:58:53;;;;;;;2.33;1.58;;;;;;;13.99;100.00;96350.81;5139007;27;20079;-61
2022/09/19 06:01:22;;;;;;;3.42;1.83;;;;;;;13.95;100.00;96344.19;5131354;27;20078;-61
2022/09/19 06:03:51;;;;;;;9.02;1.80;;;;;;;13.92;100.00;96341.06;5146002;27;20078;-62
2022/09/19 06:06:20;;;;;;;2.13;1.60;;;;;;;13.93;100.00;96348.00;5142410;27;20098;-61
2022/09/19 06:08:56;;;;;;;3.28;1.85;;;;;;;14.26;100.00;96359.38;5141344;27;20082;-61
2022/09/19 06:11:25;;;;;;;3.22;1.45;;;;;;;14.05;100.00;96353.78;5137177;27;20097;-61
2022/09/19 06:16:41;;;;;;;3.22;1.65;;;;;;;14.13;100.00;96369.69;5142151;27;20551;-61
2022/09/19 06:19:11;;;;;;;2.78;1.55;;;;;;;14.33;100.00;96372.78;5135068;27;20458;-61
2022/09/19 06:21:39;;;;;;;3.78;1.73;;;;;;;14.06;100.00;96382.78;5140767;27;20071;-61
2022/09/19 06:24:08;;;;;;;4.32;1.60;;;;;;;13.96;100.00;96376.81;5140555;27;20109;-61
2022/09/19 06:26:37;;;;;;;5.60;1.80;;;;;;;14.24;100.00;96395.84;5131653;27;20082;-62
2022/09/19 06:29:06;;;;;;;4.97;1.80;;;;;;;14.38;100.00;96396.97;5130533;27;20090;-62
2022/09/19 06:31:36;;;;;;;4.82;1.80;;;;;;;14.98;100.00;96395.63;5143270;27;20086;-62
2022/09/19 06:34:05;;;;;;;4.97;1.98;;;;;;;15.02;100.00;96400.41;5143776;27;20128;-62
2022/09/19 06:36:34;;;;;;;6.93;2.00;;;;;;;14.67;100.00;96404.38;5140720;27;20536;-62
2022/09/19 06:39:03;;;;;;;2.40;1.60;;;;;;;14.78;100.00;96408.50;5138296;27;20067;-63
2022/09/19 06:41:31;;;;;;;5.88;2.10;;;;;;;14.91;100.00;96411.44;5130467;27;20503;-61
2022/09/19 06:44:01;;;;;;;5.20;1.80;;;;;;;14.75;100.00;96414.16;5131129;27;20164;-62
2022/09/19 06:46:30;;;;;;;3.83;1.73;;;;;;;14.80;100.00;96425.91;5131255;27;20086;-61
2022/09/19 06:48:59;;;;;;;6.28;1.77;;;;;;;15.17;100.00;96427.91;5138096;27;20075;-62
2022/09/19 06:51:28;;;;;;;4.32;1.90;;;;;;;15.01;100.00;96413.88;5136617;27;20079;-60
2022/09/19 06:53:58;;;;;;;2.45;1.70;;;;;;;14.12;100.00;96434.31;5150415;27;20533;-62
2022/09/19 06:56:26;;;;;;;4.63;1.90;;;;;;;14.89;100.00;96430.16;5136422;27;20446;-62
2022/09/19 06:58:55;;;;;;;4.95;2.13;;;;;;;14.58;100.00;96442.56;5130823;27;20082;-62
2022/09/19 07:01:23;;;;;;;3.78;1.88;;;;;;;14.29;100.00;96440.44;5130229;27;20082;-61
2022/09/19 07:03:52;;;;;;;3.30;1.80;;;;;;;14.46;100.00;96434.94;5139821;27;20539;-62
2022/09/19 07:06:20;;;;;;;4.80;1.90;;;;;;;14.35;100.00;96450.34;5133230;27;20086;-62
2022/09/19 07:08:49;;;;;;;2.72;1.80;;;;;;;14.87;100.00;96432.19;5130931;27;20175;-61
2022/09/19 07:11:19;;;;;;;5.15;1.80;;;;;;;15.56;100.00;96439.47;5135859;27;20085;-61
2022/09/19 07:13:49;;;;;;;6.70;1.95;;;;;;;15.07;100.00;96453.00;5139091;27;20082;-60
2022/09/19 07:16:18;;;;;;;;;;;;;;;15.31;100.00;96450.25;5137359;27;20085;-61
2022/09/19 07:18:46;;;;;;;7.32;2.05;;;;;;;14.76;100.00;96450.28;5143164;27;20456;-62
2022/09/19 07:21:14;;;;;;;4.38;1.80;;;;;;;14.39;100.00;96452.53;5135870;27;20085;-62
2022/09/19 07:23:42;;;;;;;4.55;1.98;;;;;;;14.92;100.00;96445.75;5136400;27;20086;-61
2022/09/19 07:26:11;;;;;;;4.32;1.80;;;;;;;15.22;100.00;96459.25;5130013;27;20075;-61
2022/09/19 07:28:41;;;;;;;3.72;1.70;;;;;;;14.53;100.00;96458.19;5133088;27;20075;-61
2022/09/19 07:31:09;;;;;;;4.22;1.80;;;;;;;14.83;100.00;96472.50;5135694;27;20078;-62
2022/09/19 07:33:38;;;;;;;7.05;1.88;;;;;;;15.43;100.00;96466.63;5145053;27;20070;-62
2022/09/19 07:36:06;;;;;;;2.28;1.52;;;;;;;15.00;100.00;96484.72;5147038;27;20089;-62
2022/09/19 07:38:37;;;;;;;4.60;1.90;;;;;;;14.94;100.00;96488.09;5137101;27;20560;-61
2022/09/19 07:41:05;;;;;;;4.20;2.08;;;;;;;14.33;100.00;96490.34;5138765;27;20085;-61
2022/09/19 07:43:34;;;;;;;4.15;1.90;;;;;;;15.34;100.00;96491.56;5134399;27;20094;-61
2022/09/19 07:46:03;;;;;;;5.20;2.03;;;;;;;15.40;100.00;96497.00;5129768;27;20050;-57
2022/09/19 07:48:32;;;;;;;5.40;2.13;;;;;;;14.93;100.00;96505.00;5138316;27;20093;-62
2022/09/19 07:51:02;;;;;;;9.55;2.45;;;;;;;15.06;100.00;96513.25;5145415;27;20715;-62
2022/09/19 07:53:30;;;;;;;6.30;1.83;;;;;;;14.34;100.00;96509.72;5136370;27;20090;-62
2022/09/19 07:55:58;;;;;;;5.65;1.80;;;;;;;15.01;100.00;96512.97;5133177;27;20050;-62
2022/09/19 07:58:29;;;;;;;6.00;1.80;;;;;;;15.03;100.00;96502.16;5139738;27;20098;-61
2022/09/19 08:00:58;;;;;;;6.10;2.35;;;;;;;15.26;100.00;96521.66;5132953;27;20090;-61
2022/09/19 08:03:28;;;;;;;7.07;1.90;;;;;;;15.18;100.00;96519.06;5129953;27;20086;-61
2022/09/19 08:05:59;;;;;;;11.15;2.10;;;;;;;16.25;100.00;96529.94;5143215;27;20887;-61
2022/09/19 08:08:28;;;;;;;2.85;1.40;;;;;;;15.59;100.00;96535.66;5138224;27;20094;-62
2022/09/19 08:11:01;;;;;;;4.20;1.52;;;;;;;16.07;100.00;96530.22;5129342;27;20083;-62
2022/09/19 08:13:30;;;;;;;3.40;1.30;;;;;;;15.27;100.00;96531.28;5129739;27;20093;-62
2022/09/19 08:15:59;;;;;;;2.67;1.30;;;;;;;15.22;100.00;96544.25;5132237;27;20082;-63
2022/09/19 08:18:32;;;;;;;9.50;2.00;;;;;;;15.98;100.00;96550.72;5143313;27;20552;-62
2022/09/19 08:21:00;;;;;;;5.85;1.55;;;;;;;15.01;100.00;96557.28;5136786;27;20109;-61
2022/09/19 08:23:29;;;;;;;3.50;1.35;;;;;;;15.34;100.00;96556.16;5142364;27;20085;-61
2022/09/19 08:25:58;;;;;;;5.45;1.70;;;;;;;15.70;100.00;96555.72;5140098;27;20074;-60
2022/09/19 08:28:30;;;;;;;2.95;1.30;;;;;;;15.75;100.00;96557.84;5133019;27;20089;-61
2022/09/19 08:30:59;;;;;;;5.18;1.17;;;;;;;15.17;100.00;96565.19;5138954;27;20078;-60
2022/09/19 08:33:28;;;;;;;4.50;1.45;;;;;;;16.27;100.00;96554.50;5136197;27;20082;-61
2022/09/19 08:36:00;;;;;;;5.97;1.63;;;;;;;15.73;100.00;96555.38;5148157;27;20094;-61
2022/09/19 08:38:29;;;;;;;9.63;1.52;;;;;;;15.17;100.00;96559.88;5129681;27;20102;-61
2022/09/19 08:41:08;;;;;;;6.30;1.83;;;;;;;16.37;100.00;96560.44;5129059;27;20478;-61
2022/09/19 08:43:43;;;;;;;3.78;1.63;;;;;;;15.99;100.00;96568.34;5132491;27;20483;-62
2022/09/19 08:46:14;;;;;;;4.88;1.25;;;;;;;15.79;100.00;96564.47;5138087;27;20075;-60
2022/09/19 08:48:49;;;;;;;5.63;1.40;;;;;;;16.19;100.00;96571.38;5140972;27;20085;-61
2022/09/19 08:51:22;;;;;;;4.63;1.55;;;;;;;16.66;100.00;96573.00;5130052;27;20051;-61
2022/09/19 08:53:54;;;;;;;5.53;1.38;;;;;;;15.87;100.00;96565.25;5140502;27;20083;-62
2022/09/19 08:56:23;;;;;;;5.03;1.40;;;;;;;16.32;100.00;96574.28;5140527;27;20082;-61
2022/09/19 08:58:55;;;;;;;6.78;1.35;;;;;;;15.68;100.00;96571.00;5141152;27;20086;-62
2022/09/19 09:01:25;;;;;;;1.98;0.95;;;;;;;15.86;100.00;96576.91;5150741;27;20061;-61
2022/09/19 09:04:07;;;;;;;2.25;0.98;;;;;;;16.54;100.00;96580.59;5145255;27;20081;-62
2022/09/19 09:06:42;;;;;;;4.63;1.35;;;;;;;16.73;100.00;96586.44;5141317;27;20086;-61
2022/09/19 09:09:17;;;;;;;3.95;1.35;;;;;;;17.29;100.00;96581.56;5132804;27;20082;-61
2022/09/19 09:11:52;;;;;;;2.88;1.20;;;;;;;16.47;100.00;96582.31;5135896;27;20089;-61
2022/09/19 09:14:26;;;;;;;4.35;1.02;;;;;;;16.41;100.00;96595.50;5142733;27;20097;-61
2022/09/19 09:17:03;;;;;;;5.68;1.33;;;;;;;16.26;100.00;96587.47;5139575;27;20085;-61
2022/09/19 09:20:01;;;;;;;2.70;0.75;;;;;;;16.43;100.00;96588.19;5133164;27;20481;-61
2022/09/19 09:22:33;;;;;;;4.65;1.58;;;;;;;16.25;100.00;96583.16;5144722;27;20097;-60
2022/09/19 09:25:09;;;;;;;6.50;1.40;;;;;;;16.55;100.00;96594.72;5137594;27;20130;-61
2022/09/19 09:27:53;;;;;;;2.80;1.00;;;;;;;16.66;100.00;96598.81;5132712;27;20075;-61
2022/09/19 09:30:21;;;;;;;3.83;1.08;;;;;;;16.60;100.00;96597.69;5132379;27;20078;-62
2022/09/19 09:32:56;;;;;;;2.70;1.08;;;;;;;16.43;100.00;96594.31;5132343;27;20108;-61
2022/09/19 09:35:31;;;;;;;5.00;0.95;;;;;;;16.92;100.00;96603.78;5146749;27;20086;-61
2022/09/19 09:38:06;;;;;;;1.55;0.95;;;;;;;16.75;100.00;96593.25;5140226;27;20086;-61
2022/09/19 09:43:33;;;;;;;4.65;1.20;;;;;;;17.32;100.00;96606.03;5140963;27;20473;-61
2022/09/19 09:46:36;;;;;;;4.57;1.25;;;;;;;18.17;100.00;96591.34;5142129;27;20070;-60
2022/09/19 09:49:10;;;;;;;5.60;2.20;;;;;;;17.80;100.00;96597.66;5138767;27;20097;-60
2022/09/19 09:51:46;;;;;;;6.28;1.20;;;;;;;17.24;100.00;96595.47;5142057;27;20489;-60
2022/09/19 09:57:15;;;;;;;1.83;0.90;;;;;;;17.60;100.00;96605.38;5138733;27;20533;-59
2022/09/19 10:05:40;;;;;;;3.92;1.08;;;;;;;17.39;100.00;96615.97;5131324;27;20074;-61
2022/09/19 10:08:18;;;;;;;4.68;1.10;;;;;;;17.82;100.00;96603.63;5140560;27;20082;-60
2022/09/19 10:10:49;;;;;;;2.22;0.90;;;;;;;17.36;100.00;96616.31;5139987;27;20067;-60
2022/09/19 10:13:25;;;;;;;3.80;1.20;;;;;;;17.87;100.00;96603.91;5130247;27;20096;-59
2022/09/19 10:15:59;;;;;;;3.30;1.00;;;;;;;17.96;100.00;96602.81;5134630;27;20106;-60
2022/09/19 10:18:40;;;;;;;5.57;1.40;;;;;;;17.14;100.00;96610.91;5136301;27;20078;-57
2022/09/19 10:21:08;;;;;;;;;;;;;;;17.71;100.00;96618.25;5137206;27;20435;-60
2022/09/19 10:23:37;;;;;;;1.83;0.90;;;;;;;17.55;100.00;96613.13;5133791;27;20401;-61
2022/09/19 10:26:14;;;;;;;5.25;1.02;;;;;;;18.14;100.00;96615.72;5129840;27;20078;-60
2022/09/19 10:28:49;;;;;;;2.50;1.10;;;;;;;17.69;100.00;96616.78;5139302;27;20079;-58
2022/09/19 10:34:30;;;;;;;5.43;1.00;;;;;;;18.79;100.00;96613.94;5150029;27;20034;-61
2022/09/19 10:37:07;;;;;;;6.80;1.35;;;;;;;19.55;97.77;96616.75;5133070;27;20079;-60
2022/09/19 10:39:42;;;;;;;3.97;1.00;;;;;;;18.90;100.00;96628.63;5147100;27;20094;-61
2022/09/19 10:42:31;;;;;;;5.95;1.10;;;;;;;19.58;97.60;96619.03;5138217;27;20517;-59
2022/09/19 10:45:00;;;;;;;3.17;1.20;;;;;;;18.49;100.00;96621.22;5138269;27;20089;-61
2022/09/19 10:47:29;;;;;;;3.40;1.05;;;;;;;18.91;98.32;96619.59;5131061;27;20466;-60
2022/09/19 10:50:02;;;;;;;3.15;0.90;;;;;;;18.35;100.00;96622.94;5137270;27;20081;-60
2022/09/19 10:52:33;;;;;;;4.53;1.17;;;;;;;18.74;99.77;96619.84;5137598;27;20094;-60
2022/09/19 10:55:21;;;;;;;6.65;1.42;;;;;;;18.05;100.00;96627.53;5138211;27;20090;-59
2022/09/19 10:57:57;;;;;;;5.68;1.50;;;;;;;19.12;97.73;96619.53;5131362;27;20137;-60
2022/09/19 11:00:28;;;;;;;5.80;1.50;;;;;;;19.17;92.96;96624.31;5130623;27;20655;-60
2022/09/19 11:02:59;;;;;;;4.78;1.20;;;;;;;19.21;96.95;96620.22;5137502;27;20086;-60
2022/09/19 11:05:29;;;;;;;4.75;1.10;;;;;;;18.84;100.00;96624.88;5144969;27;20521;-61
2022/09/19 11:07:59;;;;;;;3.38;1.10;;;;;;;17.82;100.00;96632.97;5140619;27;20487;-59
2022/09/19 11:10:38;;;;;;;3.42;1.25;;;;;;;19.55;96.56;96631.97;5130430;27;20079;-61
2022/09/19 11:13:12;;;;;;;5.53;1.35;;;;;;;18.70;97.90;96623.91;5135237;27;20074;-58
2022/09/19 11:16:19;;;;;;;3.75;1.08;;;;;;;18.87;100.00;96629.00;5147792;27;20090;-60
2022/09/19 11:19:06;;;;;;;5.63;1.13;;;;;;;19.47;87.83;96624.91;5141943;27;20691;-61
2022/09/19 11:21:44;;;;;;;5.82;1.17;;;;;;;19.52;90.96;96625.16;5137745;27;20077;-60
2022/09/19 11:24:41;;;;;;;5.00;1.17;;;;;;;19.87;84.77;96633.19;5131083;27;20078;-60
2022/09/19 11:27:34;;;;;;;5.22;1.30;;;;;;;19.94;85.63;96617.19;5127548;27;20552;-60
2022/09/19 11:30:13;;;;;;;2.92;1.00;;;;;;;19.38;91.37;96620.75;5137203;27;20456;-58
2022/09/19 11:33:09;;;;;;;2.83;1.35;;;;;;;20.08;82.74;96627.72;5133263;27;20541;-60
2022/09/19 11:35:44;;;;;;;3.70;1.20;;;;;;;20.01;81.96;96629.56;5131557;27;20089;-60
2022/09/19 11:38:27;;;;;;;3.42;1.13;;;;;;;19.12;86.33;96635.56;5142082;27;20089;-60
2022/09/19 11:41:33;;;;;;;3.97;1.17;;;;;;;20.66;75.66;96627.31;5136377;27;20075;-60
2022/09/19 11:44:18;;;;;;;8.10;1.60;;;;;;;21.33;71.28;96614.72;5129482;27;20087;-59
2022/09/19 11:46:55;;;;;;;6.38;1.25;;;;;;;19.43;82.36;96603.09;5132537;27;20090;-60
2022/09/19 11:49:40;;;;;;;5.13;1.20;;;;;;;19.89;83.31;96612.44;5136785;27;20082;-59
2022/09/19 11:52:13;;;;;;;3.78;1.10;;;;;;;19.36;80.82;96602.22;5129444;27;20082;-59
2022/09/19 11:55:00;;;;;;;4.00;1.15;;;;;;;19.49;78.42;96601.47;5130310;27;20082;-61
2022/09/19 11:57:38;;;;;;;3.47;0.93;;;;;;;18.95;85.46;96592.28;5143621;27;20078;-60
2022/09/19 12:00:14;;;;;;;4.97;1.10;;;;;;;19.76;78.70;96602.47;5136115;27;20078;-60
2022/09/19 12:02:56;;;;;;;3.20;0.90;;;;;;;19.36;71.84;96593.38;5138668;27;20165;-61
2022/09/19 12:05:31;;;;;;;3.75;1.10;;;;;;;19.45;72.86;96598.38;5137668;27;20071;-60
2022/09/19 12:08:15;;;;;;;4.00;1.02;;;;;;;19.98;71.89;96584.44;5129721;27;20496;-61
2022/09/19 12:10:50;;;;;;;2.70;0.90;;;;;;;19.87;70.03;96585.03;5144601;27;20127;-60
2022/09/19 12:13:21;;;;;;;1.73;0.82;;;;;;;19.15;69.84;96584.41;5142602;27;20567;-60
2022/09/19 12:15:52;;;;;;;3.60;1.00;;;;;;;19.68;67.88;96594.59;5129589;27;20094;-61